Time,TemperatureF,DewpointF,PressureIn,WindDirection,WindDirectionDegrees,WindSpeedMPH,WindSpeedGustMPH,Humidity,HourlyPrecipIn,Conditions,Clouds,dailyrainin,SolarRadiationWatts/m^2,SoftwareType,DateUTC
2013-05-24 00:01:00,49.5,45.4,29.90,West,265,0.0,3.0,86,0.00,,,0.00,0,HR-IXPWINDi_r2_v1.2.,2013-05-24 07:01:00,
2013-05-24 00:07:00,49.6,45.2,29.90,West,265,2.0,3.0,85,0.00,,,0.00,0,HR-IXPWINDi_r2_v1.2.,2013-05-24 07:07:00,
2013-05-24 00:12:00,49.7,45.3,29.89,WNW,293,1.0,3.0,85,0.00,,,0.00,0,HR-IXPWINDi_r2_v1.2.,2013-05-24 07:12:00,
2013-05-24 00:17:00,49.9,45.5,29.89,WNW,296,0.0,3.0,85,0.00,,,0.00,0,HR-IXPWINDi_r2_v1.2.,2013-05-24 07:17:00,
2013-05-24 00:22:00,49.6,44.9,29.89,WNW,296,1.0,3.0,84,0.00,,,0.00,0,HR-IXPWINDi_r2_v1.2.,2013-05-24 07:22:00,
2013-05-24 00:27:00,49.6,45.2,29.89,NW,308,1.0,3.0,85,0.00,,,0.00,0,HR-IXPWINDi_r2_v1.2.,2013-05-24 07:27:00,
2013-05-24 00:32:00,49.6,44.9,29.89,NW,318,2.0,4.0,84,0.00,,,0.00,0,HR-IXPWINDi_r2_v1.2.,2013-05-24 07:32:00,
2013-05-24 00:38:00,49.5,44.8,29.90,NW,323,2.0,4.0,84,0.00,,,0.00,0,HR-IXPWINDi_r2_v1.2.,2013-05-24 07:38:00,
2013-05-24 00:43:00,49.3,44.6,29.90,NW,323,1.0,3.0,84,0.00,,,0.00,0,HR-IXPWINDi_r2_v1.2.,2013-05-24 07:43:00,
2013-05-24 00:48:00,49.2,44.5,29.90,NNW,328,1.0,2.0,84,0.00,,,0.00,0,HR-IXPWINDi_r2_v1.2.,2013-05-24 07:48:00,
2013-05-24 00:53:00,49.2,44.8,29.89,North,10,1.0,4.0,85,0.00,,,0.00,0,HR-IXPWINDi_r2_v1.2.,2013-05-24 07:53:00,
2013-05-24 00:58:00,48.8,44.4,29.90,North,360,2.0,4.0,85,0.00,,,0.00,0,HR-IXPWINDi_r2_v1.2.,2013-05-24 07:58:00,
2013-05-24 01:04:00,48.6,44.5,29.89,North,360,0.0,3.0,86,0.00,,,0.00,0,HR-IXPWINDi_r2_v1.2.,2013-05-24 08:04:00,
2013-05-24 01:09:00,48.3,44.6,29.89,North,360,1.0,2.0,87,0.00,,,0.00,0,HR-IXPWINDi_r2_v1.2.,2013-05-24 08:09:00,
2013-05-24 01:14:00,48.2,44.5,29.89,North,360,2.0,2.0,87,0.00,,,0.00,0,HR-IXPWINDi_r2_v1.2.,2013-05-24 08:14:00,
2013-05-24 01:19:00,48.5,44.8,29.89,WNW,300,2.0,2.0,87,0.00,,,0.00,0,HR-IXPWINDi_r2_v1.2.,2013-05-24 08:19:00,
2013-05-24 01:24:00,48.7,44.6,29.89,WNW,300,0.0,3.0,86,0.00,,,0.00,0,HR-IXPWINDi_r2_v1.2.,2013-05-24 08:24:00,
2013-05-24 01:29:00,48.4,44.7,29.89,WNW,300,1.0,1.0,87,0.00,,,0.00,0,HR-IXPWINDi_r2_v1.2.,2013-05-24 08:29:00,
2013-05-24 01:34:00,48.5,44.8,29.89,NW,313,1.0,3.0,87,0.00,,,0.00,0,HR-IXPWINDi_r2_v1.2.,2013-05-24 08:34:00,
2013-05-24 01:40:00,48.7,44.6,29.88,WNW,296,1.0,3.0,86,0.00,,,0.00,0,HR-IXPWINDi_r2_v1.2.,2013-05-24 08:40:00,
2013-05-24 01:45:00,49.0,44.9,29.88,WNW,292,1.0,3.0,86,0.00,,,0.00,0,HR-IXPWINDi_r2_v1.2.,2013-05-24 08:45:00,
2013-05-24 01:50:00,48.9,44.5,29.88,WNW,292,0.0,3.0,85,0.00,,,0.00,0,HR-IXPWINDi_r2_v1.2.,2013-05-24 08:50:00,
2013-05-24 01:55:00,48.9,44.5,29.88,WNW,292,0.0,1.0,85,0.00,,,0.00,0,HR-IXPWINDi_r2_v1.2.,2013-05-24 08:55:00,
2013-05-24 02:00:00,48.7,44.6,29.88,WNW,292,0.0,1.0,86,0.00,,,0.00,0,HR-IXPWINDi_r2_v1.2.,2013-05-24 09:00:00,
2013-05-24 02:06:00,48.3,44.3,29.88,WNW,292,1.0,2.0,86,0.00,,,0.00,0,HR-IXPWINDi_r2_v1.2.,2013-05-24 09:06:00,
2013-05-24 02:11:00,48.1,44.4,29.88,WNW,292,0.0,2.0,87,0.00,,,0.00,0,HR-IXPWINDi_r2_v1.2.,2013-05-24 09:11:00,
2013-05-24 02:16:00,47.9,44.5,29.88,WNW,292,0.0,1.0,88,0.00,,,0.00,0,HR-IXPWINDi_r2_v1.2.,2013-05-24 09:16:00,
2013-05-24 02:21:00,47.8,44.4,29.88,WNW,292,0.0,1.0,88,0.00,,,0.00,0,HR-IXPWINDi_r2_v1.2.,2013-05-24 09:21:00,
2013-05-24 02:27:00,47.3,43.9,29.88,WNW,292,0.0,0.0,88,0.00,,,0.00,0,HR-IXPWINDi_r2_v1.2.,2013-05-24 09:27:00,
2013-05-24 02:32:00,47.1,44.0,29.88,WNW,292,0.0,0.0,89,0.00,,,0.00,0,HR-IXPWINDi_r2_v1.2.,2013-05-24 09:32:00,
2013-05-24 02:37:00,47.0,43.9,29.88,WNW,292,0.0,0.0,89,0.00,,,0.00,0,HR-IXPWINDi_r2_v1.2.,2013-05-24 09:37:00,
2013-05-24 02:42:00,46.9,44.1,29.88,WNW,292,0.0,1.0,90,0.00,,,0.00,0,HR-IXPWINDi_r2_v1.2.,2013-05-24 09:42:00,
2013-05-24 02:47:00,47.0,44.2,29.88,WNW,292,0.0,1.0,90,0.00,,,0.00,0,HR-IXPWINDi_r2_v1.2.,2013-05-24 09:47:00,
2013-05-24 02:53:00,46.8,44.0,29.88,WNW,292,0.0,0.0,90,0.00,,,0.00,0,HR-IXPWINDi_r2_v1.2.,2013-05-24 09:53:00,
2013-05-24 02:58:00,46.5,43.7,29.88,WNW,292,1.0,2.0,90,0.00,,,0.00,0,HR-IXPWINDi_r2_v1.2.,2013-05-24 09:58:00,
2013-05-24 03:03:00,46.6,44.1,29.88,WNW,292,0.0,2.0,91,0.00,,,0.00,0,HR-IXPWINDi_r2_v1.2.,2013-05-24 10:03:00,
2013-05-24 03:08:00,46.7,44.2,29.88,WNW,292,0.0,2.0,91,0.00,,,0.00,0,HR-IXPWINDi_r2_v1.2.,2013-05-24 10:08:00,
2013-05-24 03:13:00,46.8,44.0,29.88,WNW,292,0.0,2.0,90,0.00,,,0.00,0,HR-IXPWINDi_r2_v1.2.,2013-05-24 10:13:00,
2013-05-24 03:18:00,46.8,44.3,29.88,WNW,292,0.0,2.0,91,0.00,,,0.00,0,HR-IXPWINDi_r2_v1.2.,2013-05-24 10:18:00,
2013-05-24 03:24:00,46.8,44.0,29.88,WNW,292,0.0,1.0,90,0.00,,,0.00,0,HR-IXPWINDi_r2_v1.2.,2013-05-24 10:24:00,
2013-05-24 03:29:00,46.8,44.0,29.89,WNW,292,1.0,1.0,90,0.00,,,0.00,0,HR-IXPWINDi_r2_v1.2.,2013-05-24 10:29:00,
2013-05-24 03:34:00,46.7,43.9,29.88,WNW,292,0.0,1.0,90,0.00,,,0.00,0,HR-IXPWINDi_r2_v1.2.,2013-05-24 10:34:00,
2013-05-24 03:39:00,46.8,44.3,29.89,WNW,292,0.0,1.0,91,0.00,,,0.00,0,HR-IXPWINDi_r2_v1.2.,2013-05-24 10:39:00,
2013-05-24 03:44:00,46.4,43.6,29.89,WNW,292,0.0,1.0,90,0.00,,,0.00,0,HR-IXPWINDi_r2_v1.2.,2013-05-24 10:44:00,
2013-05-24 03:50:00,46.4,43.9,29.89,WNW,292,0.0,1.0,91,0.00,,,0.00,0,HR-IXPWINDi_r2_v1.2.,2013-05-24 10:50:00,
2013-05-24 03:56:00,46.5,44.0,29.89,WNW,292,0.0,1.0,91,0.00,,,0.00,0,HR-IXPWINDi_r2_v1.2.,2013-05-24 10:56:00,
2013-05-24 04:01:00,46.3,43.5,29.89,WNW,292,0.0,1.0,90,0.00,,,0.00,0,HR-IXPWINDi_r2_v1.2.,2013-05-24 11:01:00,
2013-05-24 04:06:00,46.2,43.7,29.89,WNW,292,1.0,3.0,91,0.00,,,0.00,0,HR-IXPWINDi_r2_v1.2.,2013-05-24 11:06:00,
2013-05-24 04:11:00,46.3,43.5,29.89,WNW,292,0.0,3.0,90,0.00,,,0.00,0,HR-IXPWINDi_r2_v1.2.,2013-05-24 11:11:00,
2013-05-24 04:16:00,46.5,44.0,29.89,WNW,292,0.0,2.0,91,0.00,,,0.00,0,HR-IXPWINDi_r2_v1.2.,2013-05-24 11:16:00,
2013-05-24 04:22:00,46.4,43.9,29.89,WNW,292,1.0,2.0,91,0.00,,,0.00,0,HR-IXPWINDi_r2_v1.2.,2013-05-24 11:22:00,
2013-05-24 04:27:00,46.9,44.4,29.89,WNW,296,1.0,3.0,91,0.00,,,0.00,0,HR-IXPWINDi_r2_v1.2.,2013-05-24 11:27:00,
2013-05-24 04:32:00,47.4,44.6,29.89,WNW,294,0.0,3.0,90,0.00,,,0.00,0,HR-IXPWINDi_r2_v1.2.,2013-05-24 11:32:00,
2013-05-24 04:37:00,47.4,44.6,29.89,WNW,302,0.0,3.0,90,0.00,,,0.00,0,HR-IXPWINDi_r2_v1.2.,2013-05-24 11:37:00,
2013-05-24 04:43:00,47.6,44.5,29.89,WNW,302,0.0,3.0,89,0.00,,,0.00,0,HR-IXPWINDi_r2_v1.2.,2013-05-24 11:43:00,
2013-05-24 04:48:00,47.9,44.8,29.90,WNW,302,0.0,2.0,89,0.00,,,0.00,0,HR-IXPWINDi_r2_v1.2.,2013-05-24 11:48:00,
2013-05-24 04:53:00,47.6,44.2,29.90,WNW,302,0.0,1.0,88,0.00,,,0.00,0,HR-IXPWINDi_r2_v1.2.,2013-05-24 11:53:00,
2013-05-24 04:58:00,47.2,44.1,29.90,WNW,302,0.0,1.0,89,0.00,,,0.00,0,HR-IXPWINDi_r2_v1.2.,2013-05-24 11:58:00,
2013-05-24 05:04:00,47.3,44.5,29.90,WNW,302,1.0,1.0,90,0.00,,,0.00,0,HR-IXPWINDi_r2_v1.2.,2013-05-24 12:04:00,
2013-05-24 05:09:00,47.4,44.3,29.90,WNW,302,1.0,1.0,89,0.00,,,0.00,0,HR-IXPWINDi_r2_v1.2.,2013-05-24 12:09:00,
2013-05-24 05:14:00,47.4,44.3,29.90,WNW,302,1.0,2.0,89,0.00,,,0.00,0,HR-IXPWINDi_r2_v1.2.,2013-05-24 12:14:00,
2013-05-24 05:19:00,47.5,44.4,29.90,WNW,302,1.0,2.0,89,0.00,,,0.00,0,HR-IXPWINDi_r2_v1.2.,2013-05-24 12:19:00,
2013-05-24 05:24:00,47.8,44.7,29.91,WNW,302,1.0,2.0,89,0.00,,,0.00,0,HR-IXPWINDi_r2_v1.2.,2013-05-24 12:24:00,
2013-05-24 05:29:00,48.3,44.9,29.91,WNW,302,0.0,2.0,88,0.00,,,0.00,0,HR-IXPWINDi_r2_v1.2.,2013-05-24 12:29:00,
2013-05-24 05:34:00,48.5,45.1,29.91,WNW,303,1.0,3.0,88,0.00,,,0.00,0,HR-IXPWINDi_r2_v1.2.,2013-05-24 12:34:00,
2013-05-24 05:39:00,48.2,44.5,29.91,WNW,303,0.0,3.0,87,0.00,,,0.00,0,HR-IXPWINDi_r2_v1.2.,2013-05-24 12:39:00,
2013-05-24 05:44:00,47.7,44.0,29.91,WNW,303,0.0,2.0,87,0.00,,,0.00,0,HR-IXPWINDi_r2_v1.2.,2013-05-24 12:44:00,
2013-05-24 05:50:00,47.3,43.9,29.91,WNW,303,0.0,0.0,88,0.00,,,0.00,0,HR-IXPWINDi_r2_v1.2.,2013-05-24 12:50:00,
2013-05-24 05:55:00,47.2,44.1,29.92,WNW,303,0.0,1.0,89,0.00,,,0.00,7,HR-IXPWINDi_r2_v1.2.,2013-05-24 12:55:00,
2013-05-24 06:00:00,46.9,43.8,29.92,WNW,303,0.0,1.0,89,0.00,,,0.00,9,HR-IXPWINDi_r2_v1.2.,2013-05-24 13:00:00,
2013-05-24 06:05:00,46.6,43.5,29.92,WNW,303,0.0,1.0,89,0.00,,,0.00,14,HR-IXPWINDi_r2_v1.2.,2013-05-24 13:05:00,
2013-05-24 06:10:00,46.7,43.9,29.92,WNW,303,0.0,1.0,90,0.00,,,0.00,18,HR-IXPWINDi_r2_v1.2.,2013-05-24 13:10:00,
2013-05-24 06:16:00,47.0,44.2,29.92,WNW,303,0.0,1.0,90,0.00,,,0.00,21,HR-IXPWINDi_r2_v1.2.,2013-05-24 13:16:00,
2013-05-24 06:21:00,47.2,44.6,29.93,WNW,303,0.0,2.0,91,0.00,,,0.00,25,HR-IXPWINDi_r2_v1.2.,2013-05-24 13:21:00,
2013-05-24 06:26:00,47.4,44.6,29.93,WNW,303,0.0,2.0,90,0.00,,,0.00,30,HR-IXPWINDi_r2_v1.2.,2013-05-24 13:26:00,
2013-05-24 06:32:00,47.7,44.9,29.93,WNW,303,2.0,2.0,90,0.00,,,0.00,35,HR-IXPWINDi_r2_v1.2.,2013-05-24 13:32:00,
2013-05-24 06:37:00,48.2,45.3,29.93,WNW,303,1.0,2.0,90,0.00,,,0.00,44,HR-IXPWINDi_r2_v1.2.,2013-05-24 13:37:00,
2013-05-24 06:42:00,49.1,46.2,29.93,WNW,303,0.0,2.0,90,0.00,,,0.00,51,HR-IXPWINDi_r2_v1.2.,2013-05-24 13:42:00,
2013-05-24 06:47:00,50.2,47.0,29.93,WNW,303,0.0,2.0,89,0.00,,,0.00,95,HR-IXPWINDi_r2_v1.2.,2013-05-24 13:47:00,
2013-05-24 06:53:00,51.3,47.5,29.93,WNW,303,0.0,2.0,87,0.00,,,0.00,111,HR-IXPWINDi_r2_v1.2.,2013-05-24 13:53:00,
2013-05-24 06:58:00,52.3,47.9,29.94,WNW,303,0.0,2.0,85,0.00,,,0.00,128,HR-IXPWINDi_r2_v1.2.,2013-05-24 13:58:00,
2013-05-24 07:03:00,53.2,48.4,29.94,NNE,19,1.0,3.0,84,0.00,,,0.00,144,HR-IXPWINDi_r2_v1.2.,2013-05-24 14:03:00,
2013-05-24 07:08:00,54.1,49.0,29.94,North,5,1.0,3.0,83,0.00,,,0.00,148,HR-IXPWINDi_r2_v1.2.,2013-05-24 14:08:00,
2013-05-24 07:14:00,54.8,49.0,29.94,North,5,0.0,3.0,81,0.00,,,0.00,181,HR-IXPWINDi_r2_v1.2.,2013-05-24 14:14:00,
2013-05-24 07:19:00,55.6,49.5,29.94,North,5,0.0,3.0,80,0.00,,,0.00,200,HR-IXPWINDi_r2_v1.2.,2013-05-24 14:19:00,
2013-05-24 07:24:00,56.4,49.9,29.95,North,5,0.0,1.0,79,0.00,,,0.00,214,HR-IXPWINDi_r2_v1.2.,2013-05-24 14:24:00,
2013-05-24 07:29:00,56.6,49.8,29.95,North,5,0.0,2.0,78,0.00,,,0.00,227,HR-IXPWINDi_r2_v1.2.,2013-05-24 14:29:00,
2013-05-24 07:35:00,56.5,49.7,29.95,SE,142,0.0,2.0,78,0.00,,,0.00,250,HR-IXPWINDi_r2_v1.2.,2013-05-24 14:35:00,
2013-05-24 07:40:00,56.8,50.0,29.95,SE,142,0.0,2.0,78,0.00,,,0.00,271,HR-IXPWINDi_r2_v1.2.,2013-05-24 14:40:00,
2013-05-24 07:45:00,57.3,50.1,29.95,SE,142,0.0,1.0,77,0.00,,,0.00,294,HR-IXPWINDi_r2_v1.2.,2013-05-24 14:45:00,
2013-05-24 07:50:00,58.0,50.8,29.94,SE,142,0.0,2.0,77,0.00,,,0.00,304,HR-IXPWINDi_r2_v1.2.,2013-05-24 14:50:00,
2013-05-24 07:56:00,58.5,50.5,29.94,SSE,165,2.0,2.0,75,0.00,,,0.00,329,HR-IXPWINDi_r2_v1.2.,2013-05-24 14:56:00,
2013-05-24 08:01:00,58.8,50.1,29.94,SSE,165,0.0,3.0,73,0.00,,,0.00,338,HR-IXPWINDi_r2_v1.2.,2013-05-24 15:01:00,
2013-05-24 08:06:00,59.5,50.8,29.94,SSE,157,0.0,3.0,73,0.00,,,0.00,7,HR-IXPWINDi_r2_v1.2.,2013-05-24 15:06:00,
2013-05-24 08:11:00,60.2,51.1,29.94,SSE,156,0.0,2.0,72,0.00,,,0.00,371,HR-IXPWINDi_r2_v1.2.,2013-05-24 15:11:00,
2013-05-24 08:16:00,60.8,50.9,29.95,South,171,2.0,3.0,70,0.00,,,0.00,381,HR-IXPWINDi_r2_v1.2.,2013-05-24 15:16:00,
2013-05-24 08:22:00,61.6,51.7,29.95,South,171,1.0,3.0,70,0.00,,,0.00,388,HR-IXPWINDi_r2_v1.2.,2013-05-24 15:22:00,
2013-05-24 08:27:00,62.5,52.1,29.95,SSE,157,0.0,3.0,69,0.00,,,0.00,399,HR-IXPWINDi_r2_v1.2.,2013-05-24 15:27:00,
2013-05-24 08:32:00,63.0,52.6,29.95,SSE,152,0.0,2.0,69,0.00,,,0.00,411,HR-IXPWINDi_r2_v1.2.,2013-05-24 15:32:00,
2013-05-24 08:37:00,64.0,53.2,29.95,East,82,2.0,3.0,68,0.00,,,0.00,417,HR-IXPWINDi_r2_v1.2.,2013-05-24 15:37:00,
2013-05-24 08:42:00,64.8,53.1,29.94,South,174,0.0,4.0,66,0.00,,,0.00,420,HR-IXPWINDi_r2_v1.2.,2013-05-24 15:42:00,
2013-05-24 08:47:00,65.1,52.6,29.94,SSE,167,1.0,4.0,64,0.00,,,0.00,427,HR-IXPWINDi_r2_v1.2.,2013-05-24 15:47:00,
2013-05-24 08:52:00,65.3,52.3,29.95,SSE,167,3.0,5.0,63,0.00,,,0.00,429,HR-IXPWINDi_r2_v1.2.,2013-05-24 15:52:00,
2013-05-24 08:58:00,65.5,53.4,29.95,South,174,1.0,5.0,65,0.00,,,0.00,438,HR-IXPWINDi_r2_v1.2.,2013-05-24 15:58:00,
2013-05-24 09:03:00,66.5,53.9,29.95,SSE,158,0.0,5.0,64,0.00,,,0.00,441,HR-IXPWINDi_r2_v1.2.,2013-05-24 16:03:00,
2013-05-24 09:09:00,67.2,54.1,29.95,SSE,158,2.0,4.0,63,0.00,,,0.00,457,HR-IXPWINDi_r2_v1.2.,2013-05-24 16:09:00,
2013-05-24 09:14:00,67.9,53.9,29.95,SE,144,1.0,5.0,61,0.00,,,0.00,473,HR-IXPWINDi_r2_v1.2.,2013-05-24 16:14:00,
2013-05-24 09:19:00,68.2,52.3,29.95,SSE,161,1.0,5.0,57,0.00,,,0.00,499,HR-IXPWINDi_r2_v1.2.,2013-05-24 16:19:00,
2013-05-24 09:25:00,68.1,53.6,29.95,East,86,2.0,4.0,60,0.00,,,0.00,529,HR-IXPWINDi_r2_v1.2.,2013-05-24 16:25:00,
2013-05-24 09:30:00,69.6,54.1,29.95,SSE,160,2.0,5.0,58,0.00,,,0.00,564,HR-IXPWINDi_r2_v1.2.,2013-05-24 16:30:00,
2013-05-24 09:35:00,68.7,52.8,29.95,SSW,213,2.0,5.0,57,0.00,,,0.00,605,HR-IXPWINDi_r2_v1.2.,2013-05-24 16:35:00,
2013-05-24 09:40:00,69.2,53.3,29.95,NE,46,5.0,7.0,57,0.00,,,0.00,642,HR-IXPWINDi_r2_v1.2.,2013-05-24 16:40:00,
2013-05-24 09:45:00,70.7,53.7,29.95,SSE,165,2.0,7.0,55,0.00,,,0.00,671,HR-IXPWINDi_r2_v1.2.,2013-05-24 16:45:00,
2013-05-24 09:50:00,70.4,52.4,29.94,South,185,5.0,7.0,53,0.00,,,0.00,689,HR-IXPWINDi_r2_v1.2.,2013-05-24 16:50:00,
2013-05-24 09:56:00,67.7,51.9,29.94,South,190,2.0,7.0,57,0.00,,,0.00,703,HR-IXPWINDi_r2_v1.2.,2013-05-24 16:56:00,
2013-05-24 10:01:00,68.6,52.7,29.94,South,175,5.0,6.0,57,0.00,,,0.00,715,HR-IXPWINDi_r2_v1.2.,2013-05-24 17:01:00,
2013-05-24 10:06:00,68.9,53.5,29.94,ENE,65,1.0,8.0,58,0.00,,,0.00,728,HR-IXPWINDi_r2_v1.2.,2013-05-24 17:06:00,
2013-05-24 10:11:00,71.6,54.0,29.94,ENE,78,2.0,8.0,54,0.00,,,0.00,738,HR-IXPWINDi_r2_v1.2.,2013-05-24 17:11:00,
2013-05-24 10:16:00,71.8,54.2,29.94,ESE,110,2.0,5.0,54,0.00,,,0.00,744,HR-IXPWINDi_r2_v1.2.,2013-05-24 17:16:00,
2013-05-24 10:21:00,72.3,54.2,29.94,South,171,2.0,7.0,53,0.00,,,0.00,747,HR-IXPWINDi_r2_v1.2.,2013-05-24 17:21:00,
2013-05-24 10:26:00,72.5,54.3,29.94,SE,145,3.0,7.0,53,0.00,,,0.00,758,HR-IXPWINDi_r2_v1.2.,2013-05-24 17:26:00,
2013-05-24 10:32:00,73.5,55.3,29.94,SSW,200,4.0,7.0,53,0.00,,,0.00,768,HR-IXPWINDi_r2_v1.2.,2013-05-24 17:32:00,
2013-05-24 10:37:00,72.8,54.6,29.94,SSE,161,3.0,9.0,53,0.00,,,0.00,768,HR-IXPWINDi_r2_v1.2.,2013-05-24 17:37:00,
2013-05-24 10:42:00,72.4,52.7,29.94,South,178,2.0,9.0,50,0.00,,,0.00,788,HR-IXPWINDi_r2_v1.2.,2013-05-24 17:42:00,
2013-05-24 10:47:00,72.8,53.6,29.94,SE,135,2.0,8.0,51,0.00,,,0.00,802,HR-IXPWINDi_r2_v1.2.,2013-05-24 17:47:00,
2013-05-24 10:52:00,72.3,52.0,29.95,SSW,197,1.0,8.0,49,0.00,,,0.00,819,HR-IXPWINDi_r2_v1.2.,2013-05-24 17:52:00,
2013-05-24 10:57:00,70.4,51.9,29.94,South,180,3.0,10.0,52,0.00,,,0.00,824,HR-IXPWINDi_r2_v1.2.,2013-05-24 17:57:00,
2013-05-24 11:03:00,72.3,54.7,29.94,ESE,115,3.0,10.0,54,0.00,,,0.00,835,HR-IXPWINDi_r2_v1.2.,2013-05-24 18:03:00,
2013-05-24 11:08:00,71.1,52.5,29.95,South,191,7.0,13.0,52,0.00,,,0.00,840,HR-IXPWINDi_r2_v1.2.,2013-05-24 18:08:00,
2013-05-24 11:13:00,71.3,53.7,29.94,South,183,6.0,13.0,54,0.00,,,0.00,844,HR-IXPWINDi_r2_v1.2.,2013-05-24 18:13:00,
2013-05-24 11:18:00,70.3,52.8,29.95,South,177,5.0,11.0,54,0.00,,,0.00,861,HR-IXPWINDi_r2_v1.2.,2013-05-24 18:18:00,
2013-05-24 11:24:00,71.3,53.7,29.95,South,175,6.0,11.0,54,0.00,,,0.00,865,HR-IXPWINDi_r2_v1.2.,2013-05-24 18:24:00,
2013-05-24 11:29:00,70.8,52.8,29.95,South,180,2.0,9.0,53,0.00,,,0.00,872,HR-IXPWINDi_r2_v1.2.,2013-05-24 18:29:00,
2013-05-24 11:34:00,72.1,55.0,29.95,South,188,2.0,9.0,55,0.00,,,0.00,884,HR-IXPWINDi_r2_v1.2.,2013-05-24 18:34:00,
2013-05-24 11:39:00,73.3,55.6,29.95,SE,142,6.0,9.0,54,0.00,,,0.00,879,HR-IXPWINDi_r2_v1.2.,2013-05-24 18:39:00,
2013-05-24 11:46:00,72.6,53.9,29.95,South,188,8.0,11.0,52,0.00,,,0.00,891,HR-IXPWINDi_r2_v1.2.,2013-05-24 18:46:00,
2013-05-24 11:51:00,74.1,55.8,29.95,SSE,149,7.0,11.0,53,0.00,,,0.00,905,HR-IXPWINDi_r2_v1.2.,2013-05-24 18:51:00,
2013-05-24 11:56:00,71.7,54.6,29.95,SE,127,1.0,12.0,55,0.00,,,0.00,900,HR-IXPWINDi_r2_v1.2.,2013-05-24 18:56:00,
2013-05-24 12:01:00,72.5,54.9,29.95,South,189,1.0,12.0,54,0.00,,,0.00,905,HR-IXPWINDi_r2_v1.2.,2013-05-24 19:01:00,
2013-05-24 12:06:00,73.0,55.3,29.95,South,179,4.0,12.0,54,0.00,,,0.00,909,HR-IXPWINDi_r2_v1.2.,2013-05-24 19:06:00,
2013-05-24 12:12:00,72.9,56.2,29.95,SE,144,1.0,12.0,56,0.00,,,0.00,909,HR-IXPWINDi_r2_v1.2.,2013-05-24 19:12:00,
2013-05-24 12:17:00,73.3,55.1,29.95,South,188,8.0,10.0,53,0.00,,,0.00,921,HR-IXPWINDi_r2_v1.2.,2013-05-24 19:17:00,
2013-05-24 12:22:00,74.1,56.9,29.95,South,190,8.0,10.0,55,0.00,,,0.00,911,HR-IXPWINDi_r2_v1.2.,2013-05-24 19:22:00,
2013-05-24 12:27:00,74.7,56.4,29.95,South,171,3.0,9.0,53,0.00,,,0.00,926,HR-IXPWINDi_r2_v1.2.,2013-05-24 19:27:00,
2013-05-24 12:32:00,73.3,55.6,29.95,SSW,194,1.0,10.0,54,0.00,,,0.00,912,HR-IXPWINDi_r2_v1.2.,2013-05-24 19:32:00,
2013-05-24 12:38:00,72.6,55.0,29.95,SE,132,3.0,12.0,54,0.00,,,0.00,940,HR-IXPWINDi_r2_v1.2.,2013-05-24 19:38:00,
2013-05-24 12:43:00,74.4,56.6,29.95,South,180,4.0,12.0,54,0.00,,,0.00,921,HR-IXPWINDi_r2_v1.2.,2013-05-24 19:43:00,
2013-05-24 12:48:00,73.3,55.1,29.95,WSW,240,8.0,10.0,53,0.00,,,0.00,925,HR-IXPWINDi_r2_v1.2.,2013-05-24 19:48:00,
2013-05-24 12:53:00,71.2,54.6,29.95,SSE,162,4.0,13.0,56,0.00,,,0.00,925,HR-IXPWINDi_r2_v1.2.,2013-05-24 19:53:00,
2013-05-24 12:59:00,74.0,55.2,29.95,ESE,119,3.0,13.0,52,0.00,,,0.00,914,HR-IXPWINDi_r2_v1.2.,2013-05-24 19:59:00,
2013-05-24 13:04:00,74.9,55.5,29.95,SSW,196,10.0,14.0,51,0.00,,,0.00,916,HR-IXPWINDi_r2_v1.2.,2013-05-24 20:04:00,
2013-05-24 13:09:00,73.3,55.6,29.94,SSE,159,2.0,14.0,54,0.00,,,0.00,911,HR-IXPWINDi_r2_v1.2.,2013-05-24 20:09:00,
2013-05-24 13:14:00,73.2,54.5,29.95,ESE,117,5.0,14.0,52,0.00,,,0.00,916,HR-IXPWINDi_r2_v1.2.,2013-05-24 20:14:00,
2013-05-24 13:19:00,73.8,57.1,29.94,SSE,163,7.0,10.0,56,0.00,,,0.00,909,HR-IXPWINDi_r2_v1.2.,2013-05-24 20:19:00,
2013-05-24 13:25:00,74.1,55.8,29.94,South,180,7.0,10.0,53,0.00,,,0.00,904,HR-IXPWINDi_r2_v1.2.,2013-05-24 20:25:00,
2013-05-24 13:30:00,74.0,55.2,29.94,ESE,107,3.0,10.0,52,0.00,,,0.00,902,HR-IXPWINDi_r2_v1.2.,2013-05-24 20:30:00,
2013-05-24 13:35:00,73.2,55.0,29.94,SSE,167,2.0,12.0,53,0.00,,,0.00,882,HR-IXPWINDi_r2_v1.2.,2013-05-24 20:35:00,
2013-05-24 13:40:00,74.5,57.2,29.94,South,183,2.0,12.0,55,0.00,,,0.00,889,HR-IXPWINDi_r2_v1.2.,2013-05-24 20:40:00,
2013-05-24 13:46:00,74.6,56.3,29.94,SSW,192,6.0,10.0,53,0.00,,,0.00,886,HR-IXPWINDi_r2_v1.2.,2013-05-24 20:46:00,
2013-05-24 13:51:00,72.7,55.6,29.94,ESE,102,1.0,10.0,55,0.00,,,0.00,872,HR-IXPWINDi_r2_v1.2.,2013-05-24 20:51:00,
2013-05-24 13:56:00,73.7,54.9,29.94,ESE,120,5.0,14.0,52,0.00,,,0.00,867,HR-IXPWINDi_r2_v1.2.,2013-05-24 20:56:00,
2013-05-24 14:01:00,72.3,56.2,29.94,SE,130,3.0,14.0,57,0.00,,,0.00,867,HR-IXPWINDi_r2_v1.2.,2013-05-24 21:01:00,
2013-05-24 14:07:00,73.3,56.6,29.94,South,171,7.0,11.0,56,0.00,,,0.00,854,HR-IXPWINDi_r2_v1.2.,2013-05-24 21:07:00,
2013-05-24 14:12:00,72.6,56.0,29.94,South,176,1.0,12.0,56,0.00,,,0.00,849,HR-IXPWINDi_r2_v1.2.,2013-05-24 21:12:00,
2013-05-24 14:17:00,74.1,56.3,29.94,South,175,4.0,12.0,54,0.00,,,0.00,831,HR-IXPWINDi_r2_v1.2.,2013-05-24 21:17:00,
2013-05-24 14:22:00,73.2,55.0,29.94,South,176,7.0,13.0,53,0.00,,,0.00,835,HR-IXPWINDi_r2_v1.2.,2013-05-24 21:22:00,
2013-05-24 14:27:00,73.6,56.4,29.94,South,182,5.0,13.0,55,0.00,,,0.00,823,HR-IXPWINDi_r2_v1.2.,2013-05-24 21:27:00,
2013-05-24 14:32:00,72.8,55.6,29.94,South,175,0.0,12.0,55,0.00,,,0.00,817,HR-IXPWINDi_r2_v1.2.,2013-05-24 21:32:00,
2013-05-24 14:38:00,72.4,54.8,29.94,SSE,165,8.0,12.0,54,0.00,,,0.00,807,HR-IXPWINDi_r2_v1.2.,2013-05-24 21:38:00,
2013-05-24 14:43:00,73.6,55.4,29.94,South,173,3.0,11.0,53,0.00,,,0.00,793,HR-IXPWINDi_r2_v1.2.,2013-05-24 21:43:00,
2013-05-24 14:48:00,72.0,54.4,29.94,SSE,150,5.0,11.0,54,0.00,,,0.00,782,HR-IXPWINDi_r2_v1.2.,2013-05-24 21:48:00,
2013-05-24 14:53:00,72.2,56.1,29.93,South,184,3.0,11.0,57,0.00,,,0.00,768,HR-IXPWINDi_r2_v1.2.,2013-05-24 21:53:00,
2013-05-24 14:58:00,73.4,55.7,29.94,SE,130,6.0,11.0,54,0.00,,,0.00,763,HR-IXPWINDi_r2_v1.2.,2013-05-24 21:58:00,
2013-05-24 15:03:00,72.5,55.4,29.94,South,183,11.0,12.0,55,0.00,,,0.00,740,HR-IXPWINDi_r2_v1.2.,2013-05-24 22:03:00,
2013-05-24 15:08:00,72.6,56.0,29.94,ESE,117,2.0,12.0,56,0.00,,,0.00,726,HR-IXPWINDi_r2_v1.2.,2013-05-24 22:08:00,
2013-05-24 15:13:00,73.1,55.9,29.94,SSW,197,4.0,12.0,55,0.00,,,0.00,728,HR-IXPWINDi_r2_v1.2.,2013-05-24 22:13:00,
2013-05-24 15:18:00,72.0,55.4,29.94,SSE,147,4.0,12.0,56,0.00,,,0.00,726,HR-IXPWINDi_r2_v1.2.,2013-05-24 22:18:00,
2013-05-24 15:24:00,72.9,55.7,29.93,SSE,161,9.0,11.0,55,0.00,,,0.00,700,HR-IXPWINDi_r2_v1.2.,2013-05-24 22:24:00,
2013-05-24 15:29:00,71.2,54.6,29.93,SSW,200,6.0,16.0,56,0.00,,,0.00,622,HR-IXPWINDi_r2_v1.2.,2013-05-24 22:29:00,
2013-05-24 15:34:00,70.4,55.8,29.93,SSE,163,5.0,16.0,60,0.00,,,0.00,475,HR-IXPWINDi_r2_v1.2.,2013-05-24 22:34:00,
2013-05-24 15:39:00,71.3,55.2,29.93,SSE,151,1.0,12.0,57,0.00,,,0.00,608,HR-IXPWINDi_r2_v1.2.,2013-05-24 22:39:00,
2013-05-24 15:44:00,71.9,54.8,29.93,South,186,7.0,11.0,55,0.00,,,0.00,671,HR-IXPWINDi_r2_v1.2.,2013-05-24 22:44:00,
2013-05-24 15:49:00,72.1,55.5,29.93,SE,146,7.0,11.0,56,0.00,,,0.00,659,HR-IXPWINDi_r2_v1.2.,2013-05-24 22:49:00,
2013-05-24 15:54:00,72.0,54.9,29.93,SSW,205,7.0,13.0,55,0.00,,,0.00,645,HR-IXPWINDi_r2_v1.2.,2013-05-24 22:54:00,
2013-05-24 15:59:00,71.7,54.1,29.93,SE,134,2.0,13.0,54,0.00,,,0.00,628,HR-IXPWINDi_r2_v1.2.,2013-05-24 22:59:00,
2013-05-24 16:05:00,70.4,53.4,29.93,South,172,10.0,15.0,55,0.00,,,0.00,603,HR-IXPWINDi_r2_v1.2.,2013-05-24 23:05:00,
2013-05-24 16:10:00,70.2,54.2,29.93,South,184,7.0,15.0,57,0.00,,,0.00,613,HR-IXPWINDi_r2_v1.2.,2013-05-24 23:10:00,
2013-05-24 16:15:00,70.4,54.4,29.93,SSW,209,8.0,12.0,57,0.00,,,0.00,592,HR-IXPWINDi_r2_v1.2.,2013-05-24 23:15:00,
2013-05-24 16:20:00,71.3,54.7,29.93,SSE,157,6.0,11.0,56,0.00,,,0.00,577,HR-IXPWINDi_r2_v1.2.,2013-05-24 23:20:00,
2013-05-24 16:26:00,69.9,52.4,29.93,SSW,200,7.0,14.0,54,0.00,,,0.00,557,HR-IXPWINDi_r2_v1.2.,2013-05-24 23:26:00,
2013-05-24 16:31:00,69.1,52.7,29.93,SSE,166,1.0,14.0,56,0.00,,,0.00,533,HR-IXPWINDi_r2_v1.2.,2013-05-24 23:31:00,
2013-05-24 16:36:00,69.8,54.3,29.93,South,172,2.0,11.0,58,0.00,,,0.00,513,HR-IXPWINDi_r2_v1.2.,2013-05-24 23:36:00,
2013-05-24 16:41:00,69.8,53.8,29.92,East,94,0.0,11.0,57,0.00,,,0.00,512,HR-IXPWINDi_r2_v1.2.,2013-05-24 23:41:00,
2013-05-24 16:46:00,69.9,53.4,29.92,South,188,3.0,11.0,56,0.00,,,0.00,492,HR-IXPWINDi_r2_v1.2.,2013-05-24 23:46:00,
2013-05-24 16:51:00,70.2,54.2,29.92,SE,130,6.0,10.0,57,0.00,,,0.00,422,HR-IXPWINDi_r2_v1.2.,2013-05-24 23:51:00,
2013-05-24 16:56:00,70.4,53.9,29.92,SSE,159,1.0,9.0,56,0.00,,,0.00,411,HR-IXPWINDi_r2_v1.2.,2013-05-24 23:56:00,
2013-05-24 17:01:00,69.6,52.7,29.92,South,186,3.0,9.0,55,0.00,,,0.00,374,HR-IXPWINDi_r2_v1.2.,2013-05-25 00:01:00,
2013-05-24 17:07:00,69.7,54.2,29.92,SSE,163,4.0,8.0,58,0.00,,,0.00,431,HR-IXPWINDi_r2_v1.2.,2013-05-25 00:07:00,
2013-05-24 17:12:00,68.5,53.1,29.92,SSE,168,1.0,11.0,58,0.00,,,0.00,413,HR-IXPWINDi_r2_v1.2.,2013-05-25 00:12:00,
2013-05-24 17:17:00,69.0,54.0,29.92,South,181,2.0,11.0,59,0.00,,,0.00,397,HR-IXPWINDi_r2_v1.2.,2013-05-25 00:17:00,
2013-05-24 17:22:00,69.0,54.0,29.91,South,179,1.0,10.0,59,0.00,,,0.00,380,HR-IXPWINDi_r2_v1.2.,2013-05-25 00:22:00,
2013-05-24 17:28:00,69.3,53.4,29.91,South,172,1.0,10.0,57,0.00,,,0.00,362,HR-IXPWINDi_r2_v1.2.,2013-05-25 00:28:00,
2013-05-24 17:33:00,69.0,53.1,29.91,SSW,193,3.0,9.0,57,0.00,,,0.00,345,HR-IXPWINDi_r2_v1.2.,2013-05-25 00:33:00,
2013-05-24 17:38:00,68.3,53.8,29.91,South,181,3.0,9.0,60,0.00,,,0.00,325,HR-IXPWINDi_r2_v1.2.,2013-05-25 00:38:00,
2013-05-24 17:43:00,68.0,53.1,29.91,South,169,4.0,10.0,59,0.00,,,0.00,308,HR-IXPWINDi_r2_v1.2.,2013-05-25 00:43:00,
2013-05-24 17:49:00,68.7,53.7,29.91,South,184,4.0,10.0,59,0.00,,,0.00,288,HR-IXPWINDi_r2_v1.2.,2013-05-25 00:49:00,
2013-05-24 17:54:00,68.6,53.2,29.91,SSE,159,7.0,7.0,58,0.00,,,0.00,271,HR-IXPWINDi_r2_v1.2.,2013-05-25 00:54:00,
2013-05-24 17:59:00,67.9,52.5,29.91,SSW,193,3.0,7.0,58,0.00,,,0.00,251,HR-IXPWINDi_r2_v1.2.,2013-05-25 00:59:00,
2013-05-24 18:04:00,66.5,51.7,29.91,South,182,1.0,8.0,59,0.00,,,0.00,237,HR-IXPWINDi_r2_v1.2.,2013-05-25 01:04:00,
2013-05-24 18:09:00,66.3,51.9,29.91,South,184,3.0,8.0,60,0.00,,,0.00,218,HR-IXPWINDi_r2_v1.2.,2013-05-25 01:09:00,
2013-05-24 18:14:00,66.7,52.3,29.91,SSE,162,0.0,8.0,60,0.00,,,0.00,204,HR-IXPWINDi_r2_v1.2.,2013-05-25 01:14:00,
2013-05-24 18:20:00,66.7,51.9,29.91,SE,138,3.0,7.0,59,0.00,,,0.00,190,HR-IXPWINDi_r2_v1.2.,2013-05-25 01:20:00,
2013-05-24 18:25:00,66.2,51.4,29.91,South,179,3.0,9.0,59,0.00,,,0.00,172,HR-IXPWINDi_r2_v1.2.,2013-05-25 01:25:00,
2013-05-24 18:30:00,65.7,51.8,29.91,South,172,2.0,9.0,61,0.00,,,0.00,56,HR-IXPWINDi_r2_v1.2.,2013-05-25 01:30:00,
2013-05-24 18:35:00,64.3,50.9,29.90,South,180,3.0,7.0,62,0.00,,,0.00,47,HR-IXPWINDi_r2_v1.2.,2013-05-25 01:35:00,
2013-05-24 18:40:00,63.9,51.0,29.90,SSE,157,2.0,7.0,63,0.00,,,0.00,40,HR-IXPWINDi_r2_v1.2.,2013-05-25 01:40:00,
2013-05-24 18:45:00,63.4,51.0,29.91,South,191,1.0,6.0,64,0.00,,,0.00,42,HR-IXPWINDi_r2_v1.2.,2013-05-25 01:45:00,
2013-05-24 18:51:00,63.1,51.1,29.91,South,175,0.0,6.0,65,0.00,,,0.00,39,HR-IXPWINDi_r2_v1.2.,2013-05-25 01:51:00,
2013-05-24 18:56:00,62.9,50.9,29.91,SSE,159,0.0,4.0,65,0.00,,,0.00,37,HR-IXPWINDi_r2_v1.2.,2013-05-25 01:56:00,
2013-05-24 19:01:00,62.8,51.2,29.91,SSE,167,1.0,4.0,66,0.00,,,0.00,33,HR-IXPWINDi_r2_v1.2.,2013-05-25 02:01:00,
2013-05-24 19:06:00,62.5,50.9,29.91,South,179,1.0,6.0,66,0.00,,,0.00,32,HR-IXPWINDi_r2_v1.2.,2013-05-25 02:06:00,
2013-05-24 19:12:00,62.3,51.1,29.91,South,177,1.0,6.0,67,0.00,,,0.00,28,HR-IXPWINDi_r2_v1.2.,2013-05-25 02:12:00,
2013-05-24 19:17:00,62.0,50.9,29.91,South,188,3.0,5.0,67,0.00,,,0.00,26,HR-IXPWINDi_r2_v1.2.,2013-05-25 02:17:00,
2013-05-24 19:22:00,61.8,50.7,29.91,South,174,1.0,5.0,67,0.00,,,0.00,23,HR-IXPWINDi_r2_v1.2.,2013-05-25 02:22:00,
2013-05-24 19:27:00,61.3,50.2,29.91,South,180,0.0,4.0,67,0.00,,,0.00,19,HR-IXPWINDi_r2_v1.2.,2013-05-25 02:27:00,
2013-05-24 19:32:00,61.1,50.4,29.91,SSE,161,1.0,5.0,68,0.00,,,0.00,12,HR-IXPWINDi_r2_v1.2.,2013-05-25 02:32:00,
2013-05-24 19:37:00,60.8,50.1,29.91,South,188,1.0,5.0,68,0.00,,,0.00,11,HR-IXPWINDi_r2_v1.2.,2013-05-25 02:37:00,
2013-05-24 19:43:00,60.4,49.7,29.91,South,177,3.0,6.0,68,0.00,,,0.00,9,HR-IXPWINDi_r2_v1.2.,2013-05-25 02:43:00,
2013-05-24 19:48:00,60.0,49.4,29.92,South,183,6.0,7.0,68,0.00,,,0.00,5,HR-IXPWINDi_r2_v1.2.,2013-05-25 02:48:00,
2013-05-24 19:53:00,59.7,49.1,29.92,SSE,155,5.0,7.0,68,0.00,,,0.00,5,HR-IXPWINDi_r2_v1.2.,2013-05-25 02:53:00,
2013-05-24 19:59:00,59.5,49.3,29.92,SSW,193,4.0,7.0,69,0.00,,,0.00,0,HR-IXPWINDi_r2_v1.2.,2013-05-25 02:59:00,
2013-05-24 20:04:00,59.3,49.1,29.92,South,190,1.0,6.0,69,0.00,,,0.00,0,HR-IXPWINDi_r2_v1.2.,2013-05-25 03:04:00,
2013-05-24 20:09:00,59.0,49.2,29.92,South,181,1.0,4.0,70,0.00,,,0.00,0,HR-IXPWINDi_r2_v1.2.,2013-05-25 03:09:00,
2013-05-24 20:14:00,58.6,48.8,29.92,SW,221,0.0,3.0,70,0.00,,,0.00,0,HR-IXPWINDi_r2_v1.2.,2013-05-25 03:14:00,
2013-05-24 20:19:00,58.2,48.8,29.92,SW,221,0.0,3.0,71,0.00,,,0.00,0,HR-IXPWINDi_r2_v1.2.,2013-05-25 03:19:00,
2013-05-24 20:25:00,58.0,48.6,29.92,SW,221,0.0,0.0,71,0.00,,,0.00,0,HR-IXPWINDi_r2_v1.2.,2013-05-25 03:25:00,
2013-05-24 20:30:00,57.8,48.4,29.92,SW,221,0.0,2.0,71,0.00,,,0.00,0,HR-IXPWINDi_r2_v1.2.,2013-05-25 03:30:00,
2013-05-24 20:35:00,57.6,48.6,29.92,SW,221,0.0,2.0,72,0.00,,,0.00,0,HR-IXPWINDi_r2_v1.2.,2013-05-25 03:35:00,
2013-05-24 20:40:00,57.0,48.0,29.92,SW,221,0.0,1.0,72,0.00,,,0.00,0,HR-IXPWINDi_r2_v1.2.,2013-05-25 03:40:00,
2013-05-24 20:45:00,56.6,48.7,29.93,SW,221,0.0,1.0,75,0.00,,,0.00,0,HR-IXPWINDi_r2_v1.2.,2013-05-25 03:45:00,
2013-05-24 20:50:00,56.1,48.9,29.92,SW,221,0.0,0.0,77,0.00,,,0.00,0,HR-IXPWINDi_r2_v1.2.,2013-05-25 03:50:00,
2013-05-24 20:56:00,55.7,48.9,29.92,SW,221,0.0,0.0,78,0.00,,,0.00,0,HR-IXPWINDi_r2_v1.2.,2013-05-25 03:56:00,
2013-05-24 21:01:00,55.3,48.8,29.93,SW,221,0.0,0.0,79,0.00,,,0.00,0,HR-IXPWINDi_r2_v1.2.,2013-05-25 04:01:00,
2013-05-24 21:06:00,55.1,48.3,29.93,SW,221,0.0,0.0,78,0.00,,,0.00,0,HR-IXPWINDi_r2_v1.2.,2013-05-25 04:06:00,
2013-05-24 21:11:00,54.9,48.5,29.93,SW,221,0.0,0.0,79,0.00,,,0.00,0,HR-IXPWINDi_r2_v1.2.,2013-05-25 04:11:00,
2013-05-24 21:16:00,54.8,48.7,29.93,SW,221,0.0,0.0,80,0.00,,,0.00,0,HR-IXPWINDi_r2_v1.2.,2013-05-25 04:16:00,
2013-05-24 21:21:00,54.7,48.9,29.93,SW,221,0.0,0.0,81,0.00,,,0.00,0,HR-IXPWINDi_r2_v1.2.,2013-05-25 04:21:00,
2013-05-24 21:27:00,54.8,49.0,29.93,SW,221,0.0,0.0,81,0.00,,,0.00,0,HR-IXPWINDi_r2_v1.2.,2013-05-25 04:27:00,
2013-05-24 21:32:00,54.6,48.8,29.93,SW,221,0.0,0.0,81,0.00,,,0.00,0,HR-IXPWINDi_r2_v1.2.,2013-05-25 04:32:00,
2013-05-24 21:37:00,54.3,48.2,29.93,SW,221,0.0,0.0,80,0.00,,,0.00,0,HR-IXPWINDi_r2_v1.2.,2013-05-25 04:37:00,
2013-05-24 21:42:00,53.9,48.1,29.94,SW,221,0.0,0.0,81,0.00,,,0.00,0,HR-IXPWINDi_r2_v1.2.,2013-05-25 04:42:00,
2013-05-24 21:47:00,53.6,48.2,29.94,SW,221,0.0,0.0,82,0.00,,,0.00,0,HR-IXPWINDi_r2_v1.2.,2013-05-25 04:47:00,
2013-05-24 21:53:00,53.6,47.9,29.94,SW,221,0.0,0.0,81,0.00,,,0.00,0,HR-IXPWINDi_r2_v1.2.,2013-05-25 04:53:00,
2013-05-24 21:58:00,53.1,47.7,29.94,SW,221,0.0,0.0,82,0.00,,,0.00,0,HR-IXPWINDi_r2_v1.2.,2013-05-25 04:58:00,
2013-05-24 22:03:00,53.1,47.7,29.94,SW,221,0.0,0.0,82,0.00,,,0.00,0,HR-IXPWINDi_r2_v1.2.,2013-05-25 05:03:00,
2013-05-24 22:08:00,52.9,47.5,29.94,SW,221,0.0,0.0,82,0.00,,,0.00,0,HR-IXPWINDi_r2_v1.2.,2013-05-25 05:08:00,
2013-05-24 22:13:00,52.9,47.8,29.94,SW,221,0.0,0.0,83,0.00,,,0.00,0,HR-IXPWINDi_r2_v1.2.,2013-05-25 05:13:00,
2013-05-24 22:19:00,52.7,47.6,29.94,SW,221,0.0,0.0,83,0.00,,,0.00,0,HR-IXPWINDi_r2_v1.2.,2013-05-25 05:19:00,
2013-05-24 22:24:00,52.3,47.2,29.94,SW,221,0.0,1.0,83,0.00,,,0.00,0,HR-IXPWINDi_r2_v1.2.,2013-05-25 05:24:00,
2013-05-24 22:29:00,52.1,47.4,29.94,SW,221,0.0,1.0,84,0.00,,,0.00,0,HR-IXPWINDi_r2_v1.2.,2013-05-25 05:29:00,
2013-05-24 22:34:00,52.1,47.4,29.94,SW,221,0.0,1.0,84,0.00,,,0.00,0,HR-IXPWINDi_r2_v1.2.,2013-05-25 05:34:00,
2013-05-24 22:39:00,52.1,47.4,29.95,SW,221,0.0,1.0,84,0.00,,,0.00,0,HR-IXPWINDi_r2_v1.2.,2013-05-25 05:39:00,
2013-05-24 22:45:00,51.9,47.2,29.94,SW,221,0.0,1.0,84,0.00,,,0.00,0,HR-IXPWINDi_r2_v1.2.,2013-05-25 05:45:00,
2013-05-24 22:50:00,51.8,47.1,29.94,SW,221,0.0,1.0,84,0.00,,,0.00,0,HR-IXPWINDi_r2_v1.2.,2013-05-25 05:50:00,
2013-05-24 22:55:00,51.7,47.0,29.95,SW,221,0.0,1.0,84,0.00,,,0.00,0,HR-IXPWINDi_r2_v1.2.,2013-05-25 05:55:00,
2013-05-24 23:00:00,51.9,46.8,29.95,SW,221,0.0,2.0,83,0.00,,,0.00,0,HR-IXPWINDi_r2_v1.2.,2013-05-25 06:00:00,
2013-05-24 23:06:00,51.9,46.8,29.95,SW,221,0.0,2.0,83,0.00,,,0.00,0,HR-IXPWINDi_r2_v1.2.,2013-05-25 06:06:00,
2013-05-24 23:11:00,51.7,47.0,29.95,SW,221,0.0,1.0,84,0.00,,,0.00,0,HR-IXPWINDi_r2_v1.2.,2013-05-25 06:11:00,
2013-05-24 23:16:00,51.8,47.1,29.95,SW,221,0.0,1.0,84,0.00,,,0.00,0,HR-IXPWINDi_r2_v1.2.,2013-05-25 06:16:00,
2013-05-24 23:21:00,51.7,47.0,29.95,SW,229,0.0,2.0,84,0.00,,,0.00,0,HR-IXPWINDi_r2_v1.2.,2013-05-25 06:21:00,
2013-05-24 23:26:00,51.8,47.1,29.95,SW,229,0.0,2.0,84,0.00,,,0.00,0,HR-IXPWINDi_r2_v1.2.,2013-05-25 06:26:00,
2013-05-24 23:32:00,51.6,46.5,29.95,SW,236,1.0,2.0,83,0.00,,,0.00,0,HR-IXPWINDi_r2_v1.2.,2013-05-25 06:32:00,
2013-05-24 23:37:00,51.4,46.7,29.95,SW,236,0.0,2.0,84,0.00,,,0.00,0,HR-IXPWINDi_r2_v1.2.,2013-05-25 06:37:00,
2013-05-24 23:42:00,51.3,46.6,29.95,SW,236,0.0,1.0,84,0.00,,,0.00,0,HR-IXPWINDi_r2_v1.2.,2013-05-25 06:42:00,
2013-05-24 23:48:00,51.3,46.6,29.95,SW,236,0.0,1.0,84,0.00,,,0.00,0,HR-IXPWINDi_r2_v1.2.,2013-05-25 06:48:00,
2013-05-24 23:53:00,51.3,46.6,29.95,WSW,239,0.0,2.0,84,0.00,,,0.00,0,HR-IXPWINDi_r2_v1.2.,2013-05-25 06:53:00,
2013-05-24 23:58:00,51.4,46.7,29.95,WSW,240,1.0,2.0,84,0.00,,,0.00,0,HR-IXPWINDi_r2_v1.2.,2013-05-25 06:58:00,